Time;durP1;ratioP1;P1;durP2;ratioP2;P2;SDS_P1;SDS_P2;PMS_P1;PMS_P2;Temp;Humidity;BMP_temperature;BMP_pressure;BME280_temperature;BME280_humidity;BME280_pressure;Samples;Min_cycle;Max_cycle;Signal;HPM_P1;HPM_P2
2022/07/25 00:02:00;;;;;;;12.57;3.90;;;;;;;;;;4986076;28;20100;-62
2022/07/25 00:04:25;;;;;;;188.82;44.30;;;;;;;;;;4985527;28;20042;-63
2022/07/25 00:06:51;;;;;;;7.38;4.25;;;;;;;;;;4985212;28;20171;-62
2022/07/25 00:09:17;;;;;;;9.23;3.35;;;;;;;;;;4985464;28;20149;-62
2022/07/25 00:11:42;;;;;;;7.40;4.20;;;;;;;;;;4985638;28;20050;-62
2022/07/25 00:14:07;;;;;;;4.72;3.38;;;;;;;;;;4985570;28;20066;-62
2022/07/25 00:16:33;;;;;;;3.83;3.30;;;;;;;;;;4985598;28;20097;-63
2022/07/25 00:18:58;;;;;;;4.50;4.05;;;;;;;;;;4983996;28;20042;-62
2022/07/25 00:21:23;;;;;;;34.53;8.85;;;;;;;;;;4985180;28;20125;-62
2022/07/25 00:23:49;;;;;;;50.03;8.80;;;;;;;;;;4985268;28;20066;-62
2022/07/25 00:26:15;;;;;;;5.07;3.58;;;;;;;;;;4985048;28;20464;-62
2022/07/25 00:28:41;;;;;;;4.20;3.67;;;;;;;;;;4985606;28;20058;-62
2022/07/25 00:31:06;;;;;;;5.63;5.05;;;;;;;;;;4986227;28;20053;-62
2022/07/25 00:33:32;;;;;;;4.93;3.70;;;;;;;;;;4986093;28;20129;-62
2022/07/25 00:35:57;;;;;;;5.13;4.32;;;;;;;;;;4985794;28;20428;-63
2022/07/25 00:38:22;;;;;;;4.32;3.15;;;;;;;;;;4985453;28;20121;-62
2022/07/25 00:40:48;;;;;;;4.07;3.67;;;;;;;;;;4985446;28;20680;-62
2022/07/25 00:43:13;;;;;;;4.65;3.15;;;;;;;;;;4988145;28;20133;-63
2022/07/25 00:45:38;;;;;;;5.55;4.53;;;;;;;;;;4988621;28;20114;-62
2022/07/25 00:48:04;;;;;;;7.53;3.22;;;;;;;;;;4988667;28;20057;-62
2022/07/25 00:50:29;;;;;;;8.25;4.38;;;;;;;;;;4988515;28;20074;-62
2022/07/25 00:52:55;;;;;;;6.70;4.60;;;;;;;;;;4988858;28;20057;-62
2022/07/25 00:55:21;;;;;;;7.47;3.63;;;;;;;;;;4988930;28;20452;-63
2022/07/25 00:57:46;;;;;;;3.63;3.30;;;;;;;;;;4988464;28;20537;-63
2022/07/25 01:00:13;;;;;;;7.38;5.18;;;;;;;;;;4988177;28;20185;-62
2022/07/25 01:02:39;;;;;;;6.75;3.90;;;;;;;;;;4988174;28;20513;-62
2022/07/25 01:05:04;;;;;;;4.00;3.30;;;;;;;;;;4987922;28;20076;-63
2022/07/25 01:07:30;;;;;;;6.13;3.65;;;;;;;;;;4988292;28;20057;-62
2022/07/25 01:09:56;;;;;;;4.63;3.95;;;;;;;;;;4987880;28;20057;-61
2022/07/25 01:12:21;;;;;;;7.13;4.13;;;;;;;;;;4986342;28;20141;-62
2022/07/25 01:14:47;;;;;;;4.70;4.13;;;;;;;;;;4988263;28;20054;-63
2022/07/25 01:17:12;;;;;;;4.95;3.38;;;;;;;;;;4988144;28;20050;-62
2022/07/25 01:19:37;;;;;;;5.10;4.15;;;;;;;;;;4987862;28;20133;-62
2022/07/25 01:22:03;;;;;;;3.38;2.95;;;;;;;;;;4987590;28;20046;-62
2022/07/25 01:24:28;;;;;;;5.00;3.80;;;;;;;;;;4986419;28;20120;-62
2022/07/25 01:26:53;;;;;;;4.68;3.67;;;;;;;;;;4987527;28;20581;-62
2022/07/25 01:29:19;;;;;;;10.18;4.13;;;;;;;;;;4987739;28;20089;-62
2022/07/25 01:31:44;;;;;;;7.57;3.13;;;;;;;;;;4988122;28;20468;-62
2022/07/25 01:34:09;;;;;;;4.10;3.47;;;;;;;;;;4987556;28;20050;-62
2022/07/25 01:36:34;;;;;;;4.13;3.72;;;;;;;;;;4988052;28;20698;-62
2022/07/25 01:39:00;;;;;;;5.32;4.22;;;;;;;;;;4987208;28;20533;-62
2022/07/25 01:41:25;;;;;;;3.92;2.83;;;;;;;;;;4989078;28;20042;-62
2022/07/25 01:43:50;;;;;;;5.85;3.95;;;;;;;;;;4987703;28;20978;-62
2022/07/25 01:46:16;;;;;;;4.28;3.78;;;;;;;;;;4987979;28;20058;-62
2022/07/25 01:48:41;;;;;;;6.00;4.65;;;;;;;;;;4987512;28;20701;-62
2022/07/25 01:51:09;;;;;;;4.55;4.07;;;;;;;;;;4987727;28;20073;-62
2022/07/25 01:53:34;;;;;;;5.70;4.95;;;;;;;;;;4986569;28;20042;-62
2022/07/25 01:56:00;;;;;;;4.90;4.13;;;;;;;;;;4987867;28;20034;-62
2022/07/25 01:58:25;;;;;;;5.97;4.80;;;;;;;;;;4987520;28;20612;-62
2022/07/25 02:00:50;;;;;;;5.10;4.60;;;;;;;;;;4988034;28;20054;-62
2022/07/25 02:03:30;;;;;;;3.75;3.22;;;;;;;;;;4986894;28;20050;-62
2022/07/25 02:05:58;;;;;;;4.13;3.72;;;;;;;;;;4987151;28;20046;-62
2022/07/25 02:08:23;;;;;;;11.63;4.75;;;;;;;;;;4986216;28;20160;-62
2022/07/25 02:10:49;;;;;;;6.90;4.95;;;;;;;;;;4987030;28;20852;-62
2022/07/25 02:13:14;;;;;;;4.75;4.00;;;;;;;;;;4986182;28;20054;-63
2022/07/25 02:15:39;;;;;;;10.93;4.32;;;;;;;;;;4986774;28;20141;-62
2022/07/25 02:18:08;;;;;;;3.40;3.10;;;;;;;;;;4986104;28;20125;-62
2022/07/25 02:20:33;;;;;;;9.98;4.88;;;;;;;;;;4987502;28;20144;-62
2022/07/25 02:22:58;;;;;;;5.15;4.38;;;;;;;;;;4987057;28;20608;-61
2022/07/25 02:25:24;;;;;;;5.47;4.90;;;;;;;;;;4987754;28;20072;-62
2022/07/25 02:27:49;;;;;;;4.13;3.72;;;;;;;;;;4987421;28;20061;-62
2022/07/25 02:30:15;;;;;;;8.55;4.78;;;;;;;;;;4987238;28;20372;-63
2022/07/25 02:32:40;;;;;;;4.80;4.22;;;;;;;;;;4986530;28;20636;-62
2022/07/25 02:35:06;;;;;;;10.98;3.28;;;;;;;;;;4985714;28;20049;-62
2022/07/25 02:37:31;;;;;;;7.53;6.05;;;;;;;;;;4990162;28;20047;-62
2022/07/25 02:39:56;;;;;;;4.70;3.60;;;;;;;;;;4985761;28;20042;-62
2022/07/25 02:42:21;;;;;;;5.72;4.20;;;;;;;;;;4986849;28;20042;-62
2022/07/25 02:44:47;;;;;;;4.60;3.40;;;;;;;;;;4986650;28;20046;-63
2022/07/25 02:47:17;;;;;;;4.13;3.72;;;;;;;;;;4987089;28;20104;-62
2022/07/25 02:49:43;;;;;;;5.95;4.72;;;;;;;;;;4986478;28;20050;-62
2022/07/25 02:52:08;;;;;;;3.58;3.22;;;;;;;;;;4985746;28;20050;-61
2022/07/25 02:54:36;;;;;;;5.30;4.80;;;;;;;;;;4985898;28;20245;-62
2022/07/25 02:57:05;;;;;;;5.68;3.85;;;;;;;;;;4986603;28;20109;-62
2022/07/25 02:59:30;;;;;;;5.32;4.60;;;;;;;;;;4988286;28;20169;-63
2022/07/25 03:02:04;;;;;;;4.28;3.15;;;;;;;;;;4986533;28;20481;-62
2022/07/25 03:04:30;;;;;;;7.75;5.85;;;;;;;;;;4986652;28;20066;-62
2022/07/25 03:07:01;;;;;;;4.38;3.97;;;;;;;;;;4986835;28;20469;-62
2022/07/25 03:09:26;;;;;;;4.60;3.95;;;;;;;;;;4985563;28;20042;-62
2022/07/25 03:11:51;;;;;;;10.25;4.22;;;;;;;;;;4986437;28;20050;-62
2022/07/25 03:14:17;;;;;;;3.95;3.55;;;;;;;;;;4986913;28;20244;-62
2022/07/25 03:16:42;;;;;;;5.03;4.25;;;;;;;;;;4986566;28;20057;-62
2022/07/25 03:19:11;;;;;;;4.10;3.70;;;;;;;;;;4984847;28;20049;-62
2022/07/25 03:21:37;;;;;;;4.65;4.25;;;;;;;;;;4985250;28;20141;-62
2022/07/25 03:24:02;;;;;;;5.22;4.28;;;;;;;;;;4986655;28;20050;-63
2022/07/25 03:26:28;;;;;;;8.48;4.15;;;;;;;;;;4986062;28;20574;-62
2022/07/25 03:28:53;;;;;;;6.20;4.60;;;;;;;;;;4985969;28;20058;-62
2022/07/25 03:31:18;;;;;;;5.00;4.30;;;;;;;;;;4986470;28;20038;-61
2022/07/25 03:33:44;;;;;;;8.70;4.22;;;;;;;;;;4983563;28;20061;-62
2022/07/25 03:36:30;;;;;;;3.85;2.80;;;;;;;;;;4986376;28;20049;-62
2022/07/25 03:38:56;;;;;;;4.35;3.33;;;;;;;;;;4986374;28;20046;-62
2022/07/25 03:41:24;;;;;;;7.93;3.58;;;;;;;;;;4986021;28;20064;-62
2022/07/25 03:43:51;;;;;;;9.80;4.40;;;;;;;;;;4985918;28;20193;-62
2022/07/25 03:46:17;;;;;;;3.97;3.53;;;;;;;;;;4985483;28;20057;-62
2022/07/25 03:48:42;;;;;;;6.85;4.70;;;;;;;;;;4984914;28;20050;-62
2022/07/25 03:51:07;;;;;;;4.53;3.75;;;;;;;;;;4985479;28;20417;-62
2022/07/25 03:54:00;;;;;;;4.80;4.22;;;;;;;;;;4984913;28;20133;-62
2022/07/25 03:56:18;;;;;;;11.77;4.40;;;;;;;;;;4986194;28;20050;-62
2022/07/25 03:58:44;;;;;;;10.63;4.82;;;;;;;;;;4984917;28;20050;-63
2022/07/25 04:01:09;;;;;;;4.40;4.00;;;;;;;;;;4985469;28;20141;-62
2022/07/25 04:03:35;;;;;;;15.68;3.08;;;;;;;;;;4985944;28;20074;-62
2022/07/25 04:06:00;;;;;;;4.68;4.07;;;;;;;;;;4984798;28;20554;-62
2022/07/25 04:08:25;;;;;;;3.38;3.08;;;;;;;;;;4985740;28;20046;-62
2022/07/25 04:10:50;;;;;;;4.75;4.07;;;;;;;;;;4985366;28;20169;-63
2022/07/25 04:13:16;;;;;;;4.72;4.28;;;;;;;;;;4985616;28;20046;-62
2022/07/25 04:15:41;;;;;;;4.03;3.55;;;;;;;;;;4985520;28;20141;-62
2022/07/25 04:18:06;;;;;;;4.38;3.78;;;;;;;;;;4987029;28;20053;-62
2022/07/25 04:20:32;;;;;;;6.60;3.92;;;;;;;;;;4988714;28;20157;-62
2022/07/25 04:22:57;;;;;;;4.30;3.90;;;;;;;;;;4988817;28;20416;-62
2022/07/25 04:25:22;;;;;;;7.22;5.47;;;;;;;;;;4988707;28;20465;-62
2022/07/25 04:27:47;;;;;;;4.85;3.75;;;;;;;;;;4987302;28;20134;-62
2022/07/25 04:30:16;;;;;;;5.30;4.32;;;;;;;;;;4990363;28;20158;-62
2022/07/25 04:32:41;;;;;;;12.10;4.63;;;;;;;;;;4988476;28;20049;-62
2022/07/25 04:35:07;;;;;;;7.53;4.40;;;;;;;;;;4988563;28;20070;-62
2022/07/25 04:37:36;;;;;;;6.93;4.18;;;;;;;;;;4988628;28;20050;-62
2022/07/25 04:40:01;;;;;;;8.70;5.32;;;;;;;;;;4986835;28;20129;-62
2022/07/25 04:42:27;;;;;;;8.23;4.43;;;;;;;;;;4989054;28;20125;-63
2022/07/25 04:44:53;;;;;;;7.20;4.65;;;;;;;;;;4988172;28;20053;-61
2022/07/25 04:47:18;;;;;;;5.38;4.45;;;;;;;;;;4988832;28;20501;-63
2022/07/25 04:49:43;;;;;;;5.88;4.53;;;;;;;;;;4988419;28;20101;-62
2022/07/25 04:52:09;;;;;;;5.28;4.68;;;;;;;;;;4986931;28;20060;-63
2022/07/25 04:54:34;;;;;;;3.88;3.53;;;;;;;;;;4988456;28;20505;-63
2022/07/25 04:56:59;;;;;;;6.95;3.97;;;;;;;;;;4988259;28;20509;-63
2022/07/25 04:59:24;;;;;;;3.95;3.53;;;;;;;;;;4989115;28;20097;-61
2022/07/25 05:01:50;;;;;;;5.43;4.60;;;;;;;;;;4984763;28;20054;-67
2022/07/25 05:04:15;;;;;;;11.48;4.18;;;;;;;;;;4987546;28;20050;-67
2022/07/25 05:06:41;;;;;;;5.97;4.78;;;;;;;;;;4989106;28;20050;-66
2022/07/25 05:09:06;;;;;;;6.65;3.78;;;;;;;;;;4987218;28;20061;-67
2022/07/25 05:11:31;;;;;;;4.57;4.05;;;;;;;;;;4988435;28;20113;-67
2022/07/25 05:13:56;;;;;;;8.18;5.32;;;;;;;;;;4988215;28;20442;-65
2022/07/25 05:16:22;;;;;;;5.45;4.85;;;;;;;;;;4987219;28;20070;-67
2022/07/25 05:18:47;;;;;;;5.47;4.15;;;;;;;;;;4986557;28;20073;-65
2022/07/25 05:21:12;;;;;;;7.93;4.45;;;;;;;;;;4987360;28;20125;-67
2022/07/25 05:23:38;;;;;;;6.15;4.03;;;;;;;;;;4988282;28;20038;-67
2022/07/25 05:26:03;;;;;;;4.50;4.10;;;;;;;;;;4988307;28;20116;-68
2022/07/25 05:28:28;;;;;;;8.32;3.42;;;;;;;;;;4986928;28;20137;-66
2022/07/25 05:30:54;;;;;;;6.38;4.70;;;;;;;;;;4987763;28;20046;-68
2022/07/25 05:33:19;;;;;;;6.90;5.30;;;;;;;;;;4986846;28;20069;-68
2022/07/25 05:35:44;;;;;;;20.55;5.35;;;;;;;;;;4987342;28;20050;-66
2022/07/25 05:38:10;;;;;;;6.00;4.43;;;;;;;;;;4987669;28;20076;-68
2022/07/25 05:40:35;;;;;;;8.32;4.20;;;;;;;;;;4987847;28;20512;-68
2022/07/25 05:43:00;;;;;;;8.88;5.00;;;;;;;;;;4987303;28;20069;-68
2022/07/25 05:45:26;;;;;;;4.30;3.90;;;;;;;;;;4987718;28;20476;-68
2022/07/25 05:47:51;;;;;;;5.93;4.30;;;;;;;;;;4986063;28;20058;-67
2022/07/25 05:50:16;;;;;;;3.30;3.00;;;;;;;;;;4986959;28;20061;-68
2022/07/25 05:52:41;;;;;;;7.43;5.70;;;;;;;;;;4987044;28;20080;-68
2022/07/25 05:55:07;;;;;;;3.75;3.08;;;;;;;;;;4986964;28;20123;-67
2022/07/25 05:57:33;;;;;;;6.25;4.65;;;;;;;;;;4987156;28;20058;-68
2022/07/25 05:59:59;;;;;;;4.75;4.13;;;;;;;;;;4986503;28;20501;-68
2022/07/25 06:02:24;;;;;;;11.48;5.45;;;;;;;;;;4987122;28;20061;-68
2022/07/25 06:04:49;;;;;;;7.32;5.60;;;;;;;;;;4986867;28;20046;-68
2022/07/25 06:07:15;;;;;;;4.38;3.88;;;;;;;;;;4985701;28;20056;-68
2022/07/25 06:09:41;;;;;;;12.80;4.80;;;;;;;;;;4987366;28;20058;-68
2022/07/25 06:12:06;;;;;;;4.80;3.97;;;;;;;;;;4987289;28;20132;-68
2022/07/25 06:14:32;;;;;;;8.32;4.40;;;;;;;;;;4985085;28;20050;-67
2022/07/25 06:16:57;;;;;;;5.22;3.25;;;;;;;;;;4987019;28;20065;-68
2022/07/25 06:19:23;;;;;;;11.27;5.88;;;;;;;;;;4987420;28;20076;-67
2022/07/25 06:21:48;;;;;;;13.93;7.40;;;;;;;;;;4987089;28;20037;-68
2022/07/25 06:24:14;;;;;;;13.27;6.03;;;;;;;;;;4987490;28;20046;-67
2022/07/25 06:26:39;;;;;;;5.28;4.78;;;;;;;;;;4988393;28;20055;-67
2022/07/25 06:29:04;;;;;;;17.48;7.35;;;;;;;;;;4987548;28;20802;-68
2022/07/25 06:31:29;;;;;;;10.90;5.75;;;;;;;;;;4986989;28;20081;-68
2022/07/25 06:33:55;;;;;;;6.78;4.85;;;;;;;;;;4987515;28;20055;-68
2022/07/25 06:36:20;;;;;;;10.95;5.07;;;;;;;;;;4986473;28;20050;-68
2022/07/25 06:38:45;;;;;;;6.28;4.57;;;;;;;;;;4989249;28;20038;-68
2022/07/25 06:41:14;;;;;;;11.00;7.05;;;;;;;;;;4986334;28;20054;-67
2022/07/25 06:43:40;;;;;;;6.47;4.68;;;;;;;;;;4988402;28;20577;-67
2022/07/25 06:46:05;;;;;;;63.33;33.80;;;;;;;;;;4987707;28;20137;-67
2022/07/25 06:48:30;;;;;;;41.35;23.05;;;;;;;;;;4987042;28;20538;-67
2022/07/25 06:50:56;;;;;;;13.68;9.55;;;;;;;;;;4986501;28;20245;-67
2022/07/25 06:53:21;;;;;;;6.55;5.95;;;;;;;;;;4986730;28;20054;-67
2022/07/25 06:55:46;;;;;;;6.70;6.07;;;;;;;;;;4987687;28;20144;-68
2022/07/25 06:58:12;;;;;;;6.18;5.13;;;;;;;;;;4986816;28;20050;-67
2022/07/25 07:00:37;;;;;;;10.07;6.10;;;;;;;;;;4986987;28;20433;-68
2022/07/25 07:03:02;;;;;;;6.57;5.97;;;;;;;;;;4986398;28;20045;-68
2022/07/25 07:05:29;;;;;;;42.78;12.68;;;;;;;;;;4985578;28;20442;-68
2022/07/25 07:07:55;;;;;;;6.05;5.20;;;;;;;;;;4985998;28;20061;-66
2022/07/25 07:10:21;;;;;;;9.98;6.70;;;;;;;;;;4986638;28;20061;-64
2022/07/25 07:12:46;;;;;;;6.25;5.18;;;;;;;;;;4986607;28;20073;-63
2022/07/25 07:15:12;;;;;;;8.48;5.85;;;;;;;;;;4986287;28;20093;-63
2022/07/25 07:17:37;;;;;;;4.97;4.43;;;;;;;;;;4986557;28;20077;-64
2022/07/25 07:20:03;;;;;;;5.20;3.78;;;;;;;;;;4986354;28;20990;-63
2022/07/25 07:22:29;;;;;;;17.55;7.18;;;;;;;;;;4984608;28;20050;-59
2022/07/25 07:24:54;;;;;;;7.28;4.40;;;;;;;;;;4986527;28;20517;-62
2022/07/25 07:27:22;;;;;;;5.50;4.10;;;;;;;;;;4984849;28;20050;-61
2022/07/25 07:29:47;;;;;;;5.18;2.92;;;;;;;;;;4985731;28;20054;-64
2022/07/25 07:32:13;;;;;;;71.43;17.02;;;;;;;;;;4983703;28;20073;-62
2022/07/25 07:34:38;;;;;;;9.60;4.57;;;;;;;;;;4986111;28;20146;-63
2022/07/25 07:37:03;;;;;;;6.47;4.68;;;;;;;;;;4986892;28;20078;-63
2022/07/25 07:39:28;;;;;;;9.02;5.55;;;;;;;;;;4986932;28;20077;-63
2022/07/25 07:41:54;;;;;;;8.27;2.53;;;;;;;;;;4986332;28;20038;-63
2022/07/25 07:44:19;;;;;;;4.32;3.92;;;;;;;;;;4985819;28;20172;-64
2022/07/25 07:46:44;;;;;;;6.22;3.65;;;;;;;;;;4986264;28;20489;-63
2022/07/25 07:49:10;;;;;;;21.58;5.63;;;;;;;;;;4985054;28;20038;-64
2022/07/25 07:51:35;;;;;;;11.85;3.17;;;;;;;;;;4985334;28;20065;-63
2022/07/25 07:56:44;;;;;;;4.05;2.33;;;;;;;;;;4986095;28;21003;-64
2022/07/25 07:59:10;;;;;;;8.23;2.42;;;;;;;;;;4986039;28;20078;-64
2022/07/25 08:01:35;;;;;;;3.70;3.08;;;;;;;;;;4982615;28;20593;-63
2022/07/25 08:04:01;;;;;;;3.70;2.78;;;;;;;;;;4983351;28;20143;-63
2022/07/25 08:06:26;;;;;;;6.07;3.53;;;;;;;;;;4981768;28;20038;-64
2022/07/25 08:08:52;;;;;;;4.38;2.83;;;;;;;;;;4985622;28;20050;-63
2022/07/25 08:11:17;;;;;;;3.15;2.60;;;;;;;;;;4985227;28;20050;-64
2022/07/25 08:13:43;;;;;;;6.72;3.80;;;;;;;;;;4981734;28;20058;-64
2022/07/25 08:16:10;;;;;;;10.45;4.13;;;;;;;;;;4984621;28;20677;-64
2022/07/25 08:18:36;;;;;;;6.68;3.30;;;;;;;;;;4985476;28;20050;-63
2022/07/25 08:21:04;;;;;;;3.88;3.47;;;;;;;;;;4984860;28;20613;-64
2022/07/25 08:23:31;;;;;;;3.38;2.83;;;;;;;;;;4985417;28;20167;-64
2022/07/25 08:25:57;;;;;;;4.68;3.35;;;;;;;;;;4985332;28;20529;-64
2022/07/25 08:28:22;;;;;;;4.15;3.75;;;;;;;;;;4985464;28;20078;-63
2022/07/25 08:30:48;;;;;;;5.32;4.45;;;;;;;;;;4986591;28;20046;-64
2022/07/25 08:33:17;;;;;;;4.55;3.20;;;;;;;;;;4985333;28;20049;-64
2022/07/25 08:35:46;;;;;;;5.90;3.97;;;;;;;;;;4984708;28;20070;-64
2022/07/25 08:38:12;;;;;;;5.32;4.82;;;;;;;;;;4985040;28;20081;-64
2022/07/25 08:40:38;;;;;;;5.53;3.72;;;;;;;;;;4986124;28;20054;-64
2022/07/25 08:43:03;;;;;;;3.83;3.45;;;;;;;;;;4985828;28;20054;-64
2022/07/25 08:45:28;;;;;;;4.43;3.78;;;;;;;;;;4985308;28;20046;-64
2022/07/25 08:47:54;;;;;;;4.43;3.55;;;;;;;;;;4983917;28;20520;-65
2022/07/25 08:50:23;;;;;;;8.13;3.90;;;;;;;;;;4987187;28;20169;-64
2022/07/25 08:52:48;;;;;;;6.72;4.75;;;;;;;;;;4985114;28;20050;-64
2022/07/25 08:55:18;;;;;;;6.88;4.70;;;;;;;;;;4984358;28;20528;-64
2022/07/25 08:57:44;;;;;;;10.32;4.70;;;;;;;;;;4984962;28;20042;-64
2022/07/25 09:00:11;;;;;;;6.50;3.40;;;;;;;;;;4985621;28;20112;-64
2022/07/25 09:02:37;;;;;;;5.97;4.53;;;;;;;;;;4986739;28;20030;-63
2022/07/25 09:05:03;;;;;;;7.07;4.07;;;;;;;;;;4988205;28;20519;-64
2022/07/25 09:07:32;;;;;;;5.68;4.20;;;;;;;;;;4988453;28;20047;-64
2022/07/25 09:09:58;;;;;;;6.68;4.80;;;;;;;;;;4988301;28;20156;-65
2022/07/25 09:12:27;;;;;;;4.30;3.28;;;;;;;;;;4988092;28;20584;-64
2022/07/25 09:14:52;;;;;;;5.50;4.20;;;;;;;;;;4987398;28;20680;-65
2022/07/25 09:17:17;;;;;;;15.55;4.35;;;;;;;;;;4988305;28;20042;-63
2022/07/25 09:19:50;;;;;;;27.42;6.40;;;;;;;;;;4987097;28;20605;-65
2022/07/25 09:22:15;;;;;;;6.47;4.63;;;;;;;;;;4987957;28;20134;-65
2022/07/25 09:24:43;;;;;;;9.32;4.20;;;;;;;;;;4988298;28;20428;-65
2022/07/25 09:27:09;;;;;;;3.80;3.40;;;;;;;;;;4987230;28;20042;-64
2022/07/25 09:29:35;;;;;;;5.22;4.28;;;;;;;;;;4987958;28;20393;-65
2022/07/25 09:32:01;;;;;;;4.15;3.20;;;;;;;;;;4987950;28;20121;-65
2022/07/25 09:34:33;;;;;;;4.97;3.90;;;;;;;;;;4988191;28;20054;-64
2022/07/25 09:36:59;;;;;;;3.80;2.58;;;;;;;;;;4988141;28;20038;-65
2022/07/25 09:39:33;;;;;;;5.95;3.92;;;;;;;;;;4986801;28;20108;-65
2022/07/25 09:41:59;;;;;;;5.18;3.70;;;;;;;;;;4986980;28;20050;-64
2022/07/25 09:44:29;;;;;;;2.88;2.58;;;;;;;;;;4985530;28;20046;-64
2022/07/25 09:46:54;;;;;;;2.38;1.80;;;;;;;;;;4987703;28;20046;-65
2022/07/25 09:49:20;;;;;;;2.35;1.73;;;;;;;;;;4987335;28;20053;-65
2022/07/25 09:51:46;;;;;;;2.95;2.38;;;;;;;;;;4987037;28;20057;-64
2022/07/25 09:54:11;;;;;;;10.85;2.85;;;;;;;;;;4986669;28;20115;-64
2022/07/25 09:56:36;;;;;;;6.68;2.75;;;;;;;;;;4984756;28;20050;-65
2022/07/25 09:59:02;;;;;;;3.22;1.98;;;;;;;;;;4986414;28;20093;-63
2022/07/25 10:01:33;;;;;;;7.47;2.90;;;;;;;;;;4986996;28;20375;-65
2022/07/25 10:04:08;;;;;;;4.00;2.33;;;;;;;;;;4986818;28;20039;-64
2022/07/25 10:06:33;;;;;;;3.47;2.42;;;;;;;;;;4986415;28;20627;-64
2022/07/25 10:08:58;;;;;;;4.45;2.90;;;;;;;;;;4987053;28;20057;-65
2022/07/25 10:11:25;;;;;;;3.03;2.70;;;;;;;;;;4987025;28;20045;-65
2022/07/25 10:13:51;;;;;;;2.90;2.22;;;;;;;;;;4986473;28;20054;-65
2022/07/25 10:16:18;;;;;;;3.10;2.65;;;;;;;;;;4986570;28;20046;-65
2022/07/25 10:18:51;;;;;;;3.45;2.38;;;;;;;;;;4986616;28;20034;-65
2022/07/25 10:21:16;;;;;;;2.70;1.92;;;;;;;;;;4986737;28;20046;-66
2022/07/25 10:23:41;;;;;;;4.25;2.38;;;;;;;;;;4986857;28;20046;-65
2022/07/25 10:26:14;;;;;;;6.38;1.55;;;;;;;;;;4986340;28;20185;-65
2022/07/25 10:28:40;;;;;;;4.20;3.80;;;;;;;;;;4986059;28;20046;-64
2022/07/25 10:31:14;;;;;;;18.92;2.40;;;;;;;;;;4985058;28;20478;-65
2022/07/25 10:33:40;;;;;;;12.32;3.35;;;;;;;;;;4985388;28;20186;-66
2022/07/25 10:36:06;;;;;;;6.07;2.63;;;;;;;;;;4988038;28;20054;-65
2022/07/25 10:38:31;;;;;;;5.55;2.83;;;;;;;;;;4985987;28;20109;-66
2022/07/25 10:40:59;;;;;;;5.03;3.50;;;;;;;;;;4986795;28;20074;-65
2022/07/25 10:43:26;;;;;;;7.63;4.25;;;;;;;;;;4986615;28;20526;-65
2022/07/25 10:45:53;;;;;;;3.47;2.92;;;;;;;;;;4986138;28;20057;-65
2022/07/25 10:48:22;;;;;;;3.50;2.75;;;;;;;;;;4986412;28;20558;-66
2022/07/25 10:50:51;;;;;;;3.10;2.05;;;;;;;;;;4986192;28;20429;-65
2022/07/25 10:53:26;;;;;;;5.75;3.35;;;;;;;;;;4985962;28;20046;-65
2022/07/25 10:55:55;;;;;;;2.50;2.00;;;;;;;;;;4985320;28;20042;-65
2022/07/25 10:58:21;;;;;;;6.63;2.77;;;;;;;;;;4985718;28;20085;-66
2022/07/25 11:00:46;;;;;;;3.72;2.75;;;;;;;;;;4986345;28;20137;-65
2022/07/25 11:03:11;;;;;;;6.10;4.43;;;;;;;;;;4986270;28;20046;-64
2022/07/25 11:05:44;;;;;;;5.85;2.83;;;;;;;;;;4986600;28;20111;-65
2022/07/25 11:08:09;;;;;;;3.28;2.33;;;;;;;;;;4986040;28;20058;-65
2022/07/25 11:10:35;;;;;;;4.28;3.10;;;;;;;;;;4985829;28;20117;-65
2022/07/25 11:13:00;;;;;;;3.88;2.55;;;;;;;;;;4985336;28;20125;-65
2022/07/25 11:15:26;;;;;;;3.45;2.67;;;;;;;;;;4985826;28;20050;-65
2022/07/25 11:17:52;;;;;;;5.43;3.47;;;;;;;;;;4986047;28;20104;-64
2022/07/25 11:20:20;;;;;;;2.67;2.08;;;;;;;;;;4985522;28;20057;-65
2022/07/25 11:22:54;;;;;;;3.45;2.88;;;;;;;;;;4986544;28;20271;-64
2022/07/25 11:25:20;;;;;;;15.23;4.63;;;;;;;;;;4985382;28;20070;-65
2022/07/25 11:27:48;;;;;;;4.25;2.75;;;;;;;;;;4983737;28;20050;-65
2022/07/25 11:30:20;;;;;;;3.10;2.50;;;;;;;;;;4984748;28;20058;-65
2022/07/25 11:32:52;;;;;;;5.05;2.28;;;;;;;;;;4984273;28;20050;-65
2022/07/25 11:35:29;;;;;;;3.33;2.30;;;;;;;;;;4984602;28;20046;-65
2022/07/25 11:37:55;;;;;;;3.65;2.20;;;;;;;;;;4985790;28;20431;-65
2022/07/25 11:40:21;;;;;;;3.90;2.10;;;;;;;;;;4985491;28;20046;-65
2022/07/25 11:42:46;;;;;;;11.57;4.10;;;;;;;;;;4985163;28;20422;-65
2022/07/25 11:45:22;;;;;;;2.33;2.10;;;;;;;;;;4984937;28;20115;-65
2022/07/25 11:48:10;;;;;;;4.28;3.22;;;;;;;;;;4984872;28;20101;-64
2022/07/25 11:50:36;;;;;;;4.85;3.72;;;;;;;;;;4985303;28;20497;-64
2022/07/25 11:53:03;;;;;;;2.63;1.98;;;;;;;;;;4984988;28;20145;-63
2022/07/25 11:55:29;;;;;;;2.28;1.75;;;;;;;;;;4984605;28;20065;-65
2022/07/25 11:57:59;;;;;;;3.25;2.55;;;;;;;;;;4985515;28;20081;-64
2022/07/25 12:00:25;;;;;;;2.67;1.80;;;;;;;;;;4985481;28;20485;-64
2022/07/25 12:02:50;;;;;;;4.68;3.17;;;;;;;;;;4985863;28;20070;-64
2022/07/25 12:05:20;;;;;;;2.97;2.63;;;;;;;;;;4984912;28;20088;-64
2022/07/25 12:07:49;;;;;;;2.95;1.75;;;;;;;;;;4985288;28;20076;-64
2022/07/25 12:10:15;;;;;;;4.50;2.45;;;;;;;;;;4984902;28;20125;-64
2022/07/25 12:12:44;;;;;;;2.00;1.70;;;;;;;;;;4985405;28;20456;-64
2022/07/25 12:15:11;;;;;;;4.57;2.47;;;;;;;;;;4984944;28;20058;-65
2022/07/25 12:17:37;;;;;;;7.72;3.17;;;;;;;;;;4984862;28;20275;-65
2022/07/25 12:20:03;;;;;;;4.43;2.75;;;;;;;;;;4986099;28;20057;-65
2022/07/25 12:22:28;;;;;;;2.90;2.13;;;;;;;;;;4984637;28;20061;-64
2022/07/25 12:24:53;;;;;;;4.47;3.35;;;;;;;;;;4984647;28;20100;-65
2022/07/25 12:27:19;;;;;;;3.00;2.28;;;;;;;;;;4984912;28;20562;-65
2022/07/25 12:29:44;;;;;;;5.45;2.83;;;;;;;;;;4986874;28;20046;-64
2022/07/25 12:32:09;;;;;;;2.50;2.20;;;;;;;;;;4985193;28;20054;-64
2022/07/25 12:34:34;;;;;;;4.28;2.88;;;;;;;;;;4985063;28;20101;-64
2022/07/25 12:37:00;;;;;;;6.93;3.53;;;;;;;;;;4983946;28;20047;-65
2022/07/25 12:39:25;;;;;;;2.47;2.13;;;;;;;;;;4987973;28;20401;-65
2022/07/25 12:41:51;;;;;;;3.55;3.22;;;;;;;;;;4987925;28;20662;-65
2022/07/25 12:44:16;;;;;;;14.90;2.78;;;;;;;;;;4988459;28;20421;-65
2022/07/25 12:46:41;;;;;;;2.47;2.05;;;;;;;;;;4988063;28;20053;-65
2022/07/25 12:49:07;;;;;;;5.32;3.13;;;;;;;;;;4990078;28;20050;-65
2022/07/25 12:51:32;;;;;;;3.15;2.85;;;;;;;;;;4988797;28;20042;-64
2022/07/25 12:53:57;;;;;;;2.00;1.77;;;;;;;;;;4988087;28;20050;-64
2022/07/25 12:56:22;;;;;;;3.10;2.78;;;;;;;;;;4988883;28;20045;-64
2022/07/25 12:58:49;;;;;;;3.13;1.98;;;;;;;;;;4988549;28;20452;-65
2022/07/25 13:01:14;;;;;;;4.57;2.80;;;;;;;;;;4987589;28;20052;-65
2022/07/25 13:03:40;;;;;;;2.00;1.88;;;;;;;;;;4987435;28;20468;-65
2022/07/25 13:06:05;;;;;;;7.93;2.97;;;;;;;;;;4988127;28;20042;-65
2022/07/25 13:08:30;;;;;;;2.70;1.90;;;;;;;;;;4985925;28;20056;-63
2022/07/25 13:10:56;;;;;;;2.88;1.50;;;;;;;;;;4988346;28;20050;-65
2022/07/25 13:13:21;;;;;;;2.70;2.47;;;;;;;;;;4987774;28;20053;-64
2022/07/25 13:15:46;;;;;;;3.63;2.08;;;;;;;;;;4987845;28;20129;-65
2022/07/25 13:18:12;;;;;;;2.75;2.33;;;;;;;;;;4988108;28;20412;-64
2022/07/25 13:20:37;;;;;;;2.45;1.70;;;;;;;;;;4989085;28;20216;-65
2022/07/25 13:23:03;;;;;;;2.83;2.00;;;;;;;;;;4987054;28;20042;-65
2022/07/25 13:25:28;;;;;;;4.68;2.50;;;;;;;;;;4987480;28;20105;-64
2022/07/25 13:27:53;;;;;;;2.95;1.75;;;;;;;;;;4987569;28;20120;-65
2022/07/25 13:30:19;;;;;;;2.78;1.80;;;;;;;;;;4987669;28;20053;-64
2022/07/25 13:32:46;;;;;;;2.72;2.10;;;;;;;;;;4987749;28;20046;-64
2022/07/25 13:35:11;;;;;;;5.25;3.13;;;;;;;;;;4987606;28;20046;-65
2022/07/25 13:37:36;;;;;;;4.43;2.92;;;;;;;;;;4987187;28;20572;-65
2022/07/25 13:40:02;;;;;;;2.58;2.25;;;;;;;;;;4987526;28;20050;-64
2022/07/25 13:42:28;;;;;;;2.53;1.77;;;;;;;;;;4988174;28;20043;-61
2022/07/25 13:44:53;;;;;;;6.60;1.83;;;;;;;;;;4987914;28;20512;-64
2022/07/25 13:47:18;;;;;;;3.13;2.63;;;;;;;;;;4987487;28;20061;-64
2022/07/25 13:49:44;;;;;;;3.13;1.77;;;;;;;;;;4986488;28;20153;-62
2022/07/25 13:52:09;;;;;;;5.22;2.63;;;;;;;;;;4987662;28;20106;-64
2022/07/25 13:54:34;;;;;;;2.80;2.22;;;;;;;;;;4987254;28;20052;-64
2022/07/25 13:57:00;;;;;;;7.18;2.65;;;;;;;;;;4986403;28;20035;-65
2022/07/25 13:59:25;;;;;;;3.38;3.08;;;;;;;;;;4987170;28;20472;-64
2022/07/25 14:01:51;;;;;;;2.70;2.38;;;;;;;;;;4987497;28;20042;-64
2022/07/25 14:04:16;;;;;;;4.75;1.80;;;;;;;;;;4987379;28;20184;-65
2022/07/25 14:06:42;;;;;;;3.45;2.80;;;;;;;;;;4986833;28;20112;-64
2022/07/25 14:09:07;;;;;;;3.33;2.88;;;;;;;;;;4986737;28;20046;-64
2022/07/25 14:11:32;;;;;;;7.28;3.90;;;;;;;;;;4986222;28;20514;-64
2022/07/25 14:13:58;;;;;;;4.28;3.20;;;;;;;;;;4987480;28;20041;-64
2022/07/25 14:16:23;;;;;;;2.08;1.58;;;;;;;;;;4986935;28;20535;-64
2022/07/25 14:18:49;;;;;;;2.95;1.98;;;;;;;;;;4986983;28;20046;-65
2022/07/25 14:21:14;;;;;;;11.95;2.70;;;;;;;;;;4987235;28;20041;-63
2022/07/25 14:23:40;;;;;;;4.43;2.03;;;;;;;;;;4987049;28;20133;-65
2022/07/25 14:26:05;;;;;;;3.42;2.53;;;;;;;;;;4986162;28;20045;-64
2022/07/25 14:28:30;;;;;;;2.17;1.95;;;;;;;;;;4987638;28;20517;-64
2022/07/25 14:30:56;;;;;;;2.05;1.77;;;;;;;;;;4987652;28;20129;-64
2022/07/25 14:33:21;;;;;;;4.35;3.20;;;;;;;;;;4986685;28;20046;-64
2022/07/25 14:35:46;;;;;;;9.50;3.00;;;;;;;;;;4986887;28;20109;-64
2022/07/25 14:38:12;;;;;;;3.17;2.45;;;;;;;;;;4986576;28;20089;-63